sensor_id;sensor_type;location;lat;lon;timestamp;temperature;humidity
46037;DHT22;31769;49.304;8.428;2023-05-07T02:03:47;15.30;99.90
46037;DHT22;31769;49.304;8.428;2023-05-07T02:06:55;14.40;99.90
46037;DHT22;31769;49.304;8.428;2023-05-07T02:09:56;14.40;99.90
46037;DHT22;31769;49.304;8.428;2023-05-07T02:12:57;14.40;99.90
46037;DHT22;31769;49.304;8.428;2023-05-07T02:15:58;14.40;99.90
46037;DHT22;31769;49.304;8.428;2023-05-07T02:19:00;14.40;99.90
46037;DHT22;31769;49.304;8.428;2023-05-07T02:22:01;14.50;99.90
46037;DHT22;31769;49.304;8.428;2023-05-07T02:25:04;14.50;99.90
46037;DHT22;31769;49.304;8.428;2023-05-07T02:28:05;14.60;99.90
46037;DHT22;31769;49.304;8.428;2023-05-07T02:31:15;14.60;99.90
46037;DHT22;31769;49.304;8.428;2023-05-07T02:34:17;14.60;99.90
46037;DHT22;31769;49.304;8.428;2023-05-07T02:37:17;14.60;99.90
46037;DHT22;31769;49.304;8.428;2023-05-07T02:40:19;14.40;99.90
46037;DHT22;31769;49.304;8.428;2023-05-07T02:43:19;14.60;99.90
46037;DHT22;31769;49.304;8.428;2023-05-07T02:46:22;14.50;99.90
46037;DHT22;31769;49.304;8.428;2023-05-07T02:49:30;14.60;99.90
46037;DHT22;31769;49.304;8.428;2023-05-07T02:52:32;14.50;99.90
46037;DHT22;31769;49.304;8.428;2023-05-07T02:55:33;14.50;99.90
46037;DHT22;31769;49.304;8.428;2023-05-07T02:58:33;14.40;99.90
46037;DHT22;31769;49.304;8.428;2023-05-07T03:01:35;14.30;99.90
46037;DHT22;31769;49.304;8.428;2023-05-07T03:04:39;14.20;99.90
46037;DHT22;31769;49.304;8.428;2023-05-07T03:07:40;14.20;99.90
46037;DHT22;31769;49.304;8.428;2023-05-07T03:10:44;14.20;99.90
46037;DHT22;31769;49.304;8.428;2023-05-07T03:13:45;14.20;99.90
46037;DHT22;31769;49.304;8.428;2023-05-07T03:16:46;14.30;99.90
46037;DHT22;31769;49.304;8.428;2023-05-07T03:19:47;14.20;99.90
46037;DHT22;31769;49.304;8.428;2023-05-07T03:22:48;14.20;99.90
46037;DHT22;31769;49.304;8.428;2023-05-07T03:25:49;14.20;99.90
46037;DHT22;31769;49.304;8.428;2023-05-07T03:28:50;14.20;99.90
46037;DHT22;31769;49.304;8.428;2023-05-07T03:31:51;14.20;99.90
46037;DHT22;31769;49.304;8.428;2023-05-07T03:34:52;14.10;99.90
46037;DHT22;31769;49.304;8.428;2023-05-07T03:37:53;14.20;99.90
46037;DHT22;31769;49.304;8.428;2023-05-07T03:40:55;14.20;99.90
46037;DHT22;31769;49.304;8.428;2023-05-07T03:43:56;14.20;99.90
46037;DHT22;31769;49.304;8.428;2023-05-07T03:46:57;14.10;99.90
46037;DHT22;31769;49.304;8.428;2023-05-07T03:49:58;14.10;99.90
46037;DHT22;31769;49.304;8.428;2023-05-07T03:52:59;14.10;99.90
46037;DHT22;31769;49.304;8.428;2023-05-07T03:56:00;14.10;99.90
46037;DHT22;31769;49.304;8.428;2023-05-07T03:59:04;14.20;99.90
46037;DHT22;31769;49.304;8.428;2023-05-07T04:02:07;14.20;99.90
46037;DHT22;31769;49.304;8.428;2023-05-07T04:05:08;14.20;99.90
46037;DHT22;31769;49.304;8.428;2023-05-07T04:08:13;14.30;99.90
46037;DHT22;31769;49.304;8.428;2023-05-07T04:11:16;14.20;99.90
46037;DHT22;31769;49.304;8.428;2023-05-07T04:14:17;14.20;99.90
46037;DHT22;31769;49.304;8.428;2023-05-07T04:17:18;14.10;99.90
46037;DHT22;31769;49.304;8.428;2023-05-07T04:20:19;14.10;99.90
46037;DHT22;31769;49.304;8.428;2023-05-07T04:23:25;14.30;99.90
46037;DHT22;31769;49.304;8.428;2023-05-07T04:26:27;14.10;99.90
46037;DHT22;31769;49.304;8.428;2023-05-07T04:29:28;14.10;99.90
46037;DHT22;31769;49.304;8.428;2023-05-07T04:32:30;14.10;99.90
46037;DHT22;31769;49.304;8.428;2023-05-07T04:35:31;14.10;99.90
46037;DHT22;31769;49.304;8.428;2023-05-07T04:38:32;14.20;99.90
46037;DHT22;31769;49.304;8.428;2023-05-07T04:41:36;14.40;99.90
46037;DHT22;31769;49.304;8.428;2023-05-07T04:44:37;14.20;99.90
46037;DHT22;31769;49.304;8.428;2023-05-07T04:47:38;14.20;99.90
46037;DHT22;31769;49.304;8.428;2023-05-07T04:50:39;14.20;99.90
46037;DHT22;31769;49.304;8.428;2023-05-07T04:53:41;14.40;99.90
46037;DHT22;31769;49.304;8.428;2023-05-07T04:56:42;14.40;99.90
46037;DHT22;31769;49.304;8.428;2023-05-07T04:59:44;14.50;99.90
46037;DHT22;31769;49.304;8.428;2023-05-07T05:02:45;14.60;99.90
46037;DHT22;31769;49.304;8.428;2023-05-07T05:05:51;14.70;99.90
46037;DHT22;31769;49.304;8.428;2023-05-07T05:08:54;14.80;99.90
46037;DHT22;31769;49.304;8.428;2023-05-07T05:11:56;14.90;99.90
46037;DHT22;31769;49.304;8.428;2023-05-07T05:14:57;15.00;99.90
46037;DHT22;31769;49.304;8.428;2023-05-07T05:17:57;15.10;99.90
46037;DHT22;31769;49.304;8.428;2023-05-07T05:20:58;15.00;99.90
46037;DHT22;31769;49.304;8.428;2023-05-07T05:24:00;14.90;99.90
46037;DHT22;31769;49.304;8.428;2023-05-07T05:27:01;14.90;99.90
46037;DHT22;31769;49.304;8.428;2023-05-07T05:30:04;15.00;99.90
46037;DHT22;31769;49.304;8.428;2023-05-07T05:33:07;15.00;99.90
46037;DHT22;31769;49.304;8.428;2023-05-07T05:36:11;15.10;99.90
46037;DHT22;31769;49.304;8.428;2023-05-07T05:39:13;15.20;99.90
46037;DHT22;31769;49.304;8.428;2023-05-07T05:42:14;15.30;99.90
46037;DHT22;31769;49.304;8.428;2023-05-07T05:45:15;15.40;99.90
46037;DHT22;31769;49.304;8.428;2023-05-07T05:48:17;15.50;99.90
46037;DHT22;31769;49.304;8.428;2023-05-07T05:51:18;15.60;99.90
46037;DHT22;31769;49.304;8.428;2023-05-07T05:54:19;15.80;99.90
46037;DHT22;31769;49.304;8.428;2023-05-07T05:57:20;16.00;99.90
46037;DHT22;31769;49.304;8.428;2023-05-07T06:00:21;16.10;99.90
46037;DHT22;31769;49.304;8.428;2023-05-07T06:03:29;16.30;99.90
46037;DHT22;31769;49.304;8.428;2023-05-07T06:06:32;16.50;99.90
46037;DHT22;31769;49.304;8.428;2023-05-07T06:09:34;16.70;99.90
46037;DHT22;31769;49.304;8.428;2023-05-07T06:12:35;16.80;99.90
46037;DHT22;31769;49.304;8.428;2023-05-07T06:15:36;16.90;99.90
46037;DHT22;31769;49.304;8.428;2023-05-07T06:18:42;17.00;99.90
46037;DHT22;31769;49.304;8.428;2023-05-07T06:21:43;17.10;99.90
46037;DHT22;31769;49.304;8.428;2023-05-07T06:24:44;17.20;99.90
46037;DHT22;31769;49.304;8.428;2023-05-07T06:27:45;17.30;99.90
46037;DHT22;31769;49.304;8.428;2023-05-07T06:30:46;17.40;99.90
46037;DHT22;31769;49.304;8.428;2023-05-07T06:33:47;17.60;99.90
46037;DHT22;31769;49.304;8.428;2023-05-07T06:36:49;17.70;99.90
46037;DHT22;31769;49.304;8.428;2023-05-07T06:40:00;17.90;99.90
46037;DHT22;31769;49.304;8.428;2023-05-07T06:43:02;18.10;99.90
46037;DHT22;31769;49.304;8.428;2023-05-07T06:46:10;18.30;99.90
46037;DHT22;31769;49.304;8.428;2023-05-07T06:49:12;18.50;99.90
46037;DHT22;31769;49.304;8.428;2023-05-07T06:52:13;18.70;99.90
46037;DHT22;31769;49.304;8.428;2023-05-07T06:55:14;18.80;99.90
46037;DHT22;31769;49.304;8.428;2023-05-07T06:58:15;18.80;99.90
46037;DHT22;31769;49.304;8.428;2023-05-07T07:01:17;18.90;99.90
46037;DHT22;31769;49.304;8.428;2023-05-07T07:04:18;19.00;99.90
46037;DHT22;31769;49.304;8.428;2023-05-07T07:07:24;19.10;99.90
46037;DHT22;31769;49.304;8.428;2023-05-07T07:10:25;19.20;99.90
46037;DHT22;31769;49.304;8.428;2023-05-07T07:13:27;19.30;99.90
46037;DHT22;31769;49.304;8.428;2023-05-07T07:16:28;19.50;99.90
46037;DHT22;31769;49.304;8.428;2023-05-07T07:19:29;19.70;99.90
46037;DHT22;31769;49.304;8.428;2023-05-07T07:22:31;19.90;99.90
46037;DHT22;31769;49.304;8.428;2023-05-07T07:25:32;20.00;99.90
46037;DHT22;31769;49.304;8.428;2023-05-07T07:28:33;20.10;99.90
46037;DHT22;31769;49.304;8.428;2023-05-07T07:31:33;20.10;99.90
46037;DHT22;31769;49.304;8.428;2023-05-07T07:34:34;20.30;99.90
46037;DHT22;31769;49.304;8.428;2023-05-07T07:37:36;20.30;99.90
46037;DHT22;31769;49.304;8.428;2023-05-07T07:40:37;20.40;99.90
46037;DHT22;31769;49.304;8.428;2023-05-07T07:43:40;20.50;99.90
46037;DHT22;31769;49.304;8.428;2023-05-07T07:46:40;20.60;99.90
46037;DHT22;31769;49.304;8.428;2023-05-07T07:49:42;20.80;99.90
46037;DHT22;31769;49.304;8.428;2023-05-07T07:52:44;21.10;99.90
46037;DHT22;31769;49.304;8.428;2023-05-07T07:55:48;21.30;99.90
46037;DHT22;31769;49.304;8.428;2023-05-07T07:58:51;21.20;99.90
46037;DHT22;31769;49.304;8.428;2023-05-07T08:01:53;21.10;99.90
46037;DHT22;31769;49.304;8.428;2023-05-07T08:04:58;21.10;99.90
46037;DHT22;31769;49.304;8.428;2023-05-07T08:07:59;21.30;99.90
46037;DHT22;31769;49.304;8.428;2023-05-07T08:11:04;21.50;99.90
46037;DHT22;31769;49.304;8.428;2023-05-07T08:14:07;21.80;99.90
46037;DHT22;31769;49.304;8.428;2023-05-07T08:17:08;22.20;99.90
46037;DHT22;31769;49.304;8.428;2023-05-07T08:20:11;22.50;99.90
46037;DHT22;31769;49.304;8.428;2023-05-07T08:23:12;22.90;99.90
46037;DHT22;31769;49.304;8.428;2023-05-07T08:26:14;23.30;99.90
46037;DHT22;31769;49.304;8.428;2023-05-07T08:29:16;23.50;99.90
46037;DHT22;31769;49.304;8.428;2023-05-07T08:32:17;23.60;99.90
46037;DHT22;31769;49.304;8.428;2023-05-07T08:35:18;23.70;99.90
46037;DHT22;31769;49.304;8.428;2023-05-07T08:38:19;23.70;99.90
46037;DHT22;31769;49.304;8.428;2023-05-07T08:41:20;23.50;99.90
46037;DHT22;31769;49.304;8.428;2023-05-07T08:44:22;23.40;99.90
46037;DHT22;31769;49.304;8.428;2023-05-07T08:47:29;23.40;99.90
46037;DHT22;31769;49.304;8.428;2023-05-07T08:50:36;23.60;99.90
46037;DHT22;31769;49.304;8.428;2023-05-07T08:53:40;23.60;99.90
46037;DHT22;31769;49.304;8.428;2023-05-07T08:56:42;23.80;99.90
46037;DHT22;31769;49.304;8.428;2023-05-07T08:59:43;24.10;99.90
46037;DHT22;31769;49.304;8.428;2023-05-07T09:02:45;24.00;99.90
46037;DHT22;31769;49.304;8.428;2023-05-07T09:05:47;24.00;99.90
46037;DHT22;31769;49.304;8.428;2023-05-07T09:08:54;24.30;99.90
46037;DHT22;31769;49.304;8.428;2023-05-07T09:11:58;24.30;99.90
46037;DHT22;31769;49.304;8.428;2023-05-07T09:15:01;24.10;99.90
46037;DHT22;31769;49.304;8.428;2023-05-07T09:18:03;23.90;99.90
46037;DHT22;31769;49.304;8.428;2023-05-07T09:21:09;23.60;99.90
46037;DHT22;31769;49.304;8.428;2023-05-07T09:24:10;23.70;99.90
46037;DHT22;31769;49.304;8.428;2023-05-07T09:27:14;23.90;99.90
46037;DHT22;31769;49.304;8.428;2023-05-07T09:30:18;24.00;99.90
46037;DHT22;31769;49.304;8.428;2023-05-07T09:33:19;24.10;99.90
46037;DHT22;31769;49.304;8.428;2023-05-07T09:36:24;24.00;99.90
46037;DHT22;31769;49.304;8.428;2023-05-07T09:39:27;24.00;99.90
46037;DHT22;31769;49.304;8.428;2023-05-07T09:42:39;23.80;99.90
46037;DHT22;31769;49.304;8.428;2023-05-07T09:45:41;23.80;99.90
46037;DHT22;31769;49.304;8.428;2023-05-07T09:48:44;24.00;99.90
46037;DHT22;31769;49.304;8.428;2023-05-07T09:51:50;24.40;99.90
46037;DHT22;31769;49.304;8.428;2023-05-07T09:54:52;24.70;99.40
46037;DHT22;31769;49.304;8.428;2023-05-07T09:57:58;24.80;98.90
46037;DHT22;31769;49.304;8.428;2023-05-07T10:01:02;25.20;99.00
46037;DHT22;31769;49.304;8.428;2023-05-07T10:04:05;25.40;98.90
46037;DHT22;31769;49.304;8.428;2023-05-07T10:07:08;25.60;98.20
46037;DHT22;31769;49.304;8.428;2023-05-07T10:10:10;25.50;97.70
46037;DHT22;31769;49.304;8.428;2023-05-07T10:13:17;25.50;97.70
46037;DHT22;31769;49.304;8.428;2023-05-07T10:16:22;25.60;97.60
46037;DHT22;31769;49.304;8.428;2023-05-07T10:19:24;25.50;98.20
46037;DHT22;31769;49.304;8.428;2023-05-07T10:22:31;25.70;97.50
46037;DHT22;31769;49.304;8.428;2023-05-07T10:25:35;25.60;96.90
46037;DHT22;31769;49.304;8.428;2023-05-07T10:28:47;25.40;96.80
46037;DHT22;31769;49.304;8.428;2023-05-07T10:32:19;25.40;96.90
46037;DHT22;31769;49.304;8.428;2023-05-07T10:35:30;25.30;97.40
46037;DHT22;31769;49.304;8.428;2023-05-07T10:38:34;25.10;97.50
46037;DHT22;31769;49.304;8.428;2023-05-07T10:41:36;25.00;97.60
46037;DHT22;31769;49.304;8.428;2023-05-07T10:44:37;25.10;97.80
46037;DHT22;31769;49.304;8.428;2023-05-07T10:48:09;25.30;97.50
46037;DHT22;31769;49.304;8.428;2023-05-07T10:51:23;25.60;97.60
46037;DHT22;31769;49.304;8.428;2023-05-07T10:54:35;25.80;96.90
46037;DHT22;31769;49.304;8.428;2023-05-07T10:57:40;25.90;97.10
46037;DHT22;31769;49.304;8.428;2023-05-07T11:00:58;26.10;96.50
46037;DHT22;31769;49.304;8.428;2023-05-07T11:04:15;26.20;95.80
46037;DHT22;31769;49.304;8.428;2023-05-07T11:07:26;26.40;95.60
46037;DHT22;31769;49.304;8.428;2023-05-07T11:10:49;26.50;95.40
46037;DHT22;31769;49.304;8.428;2023-05-07T11:13:57;26.70;95.50
46037;DHT22;31769;49.304;8.428;2023-05-07T11:17:12;27.10;95.70
46037;DHT22;31769;49.304;8.428;2023-05-07T11:20:14;27.30;94.50
46037;DHT22;31769;49.304;8.428;2023-05-07T11:26:54;27.60;93.70
46037;DHT22;31769;49.304;8.428;2023-05-07T11:29:57;27.90;92.60
46037;DHT22;31769;49.304;8.428;2023-05-07T11:32:58;28.00;91.90
46037;DHT22;31769;49.304;8.428;2023-05-07T11:36:00;27.90;91.70
46037;DHT22;31769;49.304;8.428;2023-05-07T11:39:32;28.00;91.10
46037;DHT22;31769;49.304;8.428;2023-05-07T11:42:37;28.00;91.20
46037;DHT22;31769;49.304;8.428;2023-05-07T11:45:38;28.40;91.10
46037;DHT22;31769;49.304;8.428;2023-05-07T11:48:39;28.90;90.90
46037;DHT22;31769;49.304;8.428;2023-05-07T11:51:40;29.60;90.30
46037;DHT22;31769;49.304;8.428;2023-05-07T11:54:55;30.00;88.30
46037;DHT22;31769;49.304;8.428;2023-05-07T11:57:55;30.20;84.80
46037;DHT22;31769;49.304;8.428;2023-05-07T12:00:56;30.70;82.30
46037;DHT22;31769;49.304;8.428;2023-05-07T12:03:57;30.90;81.20
46037;DHT22;31769;49.304;8.428;2023-05-07T12:06:58;31.80;79.80
46037;DHT22;31769;49.304;8.428;2023-05-07T12:09:59;32.60;75.50
46037;DHT22;31769;49.304;8.428;2023-05-07T12:13:00;33.30;73.00
46037;DHT22;31769;49.304;8.428;2023-05-07T12:16:01;34.00;69.90
46037;DHT22;31769;49.304;8.428;2023-05-07T12:19:03;34.70;66.90
46037;DHT22;31769;49.304;8.428;2023-05-07T12:22:05;34.90;64.70
46037;DHT22;31769;49.304;8.428;2023-05-07T12:25:07;34.30;64.80
46037;DHT22;31769;49.304;8.428;2023-05-07T12:28:13;33.60;63.80
46037;DHT22;31769;49.304;8.428;2023-05-07T12:31:15;33.60;64.00
46037;DHT22;31769;49.304;8.428;2023-05-07T12:34:16;34.90;61.80
46037;DHT22;31769;49.304;8.428;2023-05-07T12:37:23;36.40;60.00
46037;DHT22;31769;49.304;8.428;2023-05-07T12:40:39;39.10;56.60
46037;DHT22;31769;49.304;8.428;2023-05-07T12:43:44;42.00;51.30
46037;DHT22;31769;49.304;8.428;2023-05-07T12:46:46;43.10;47.80
46037;DHT22;31769;49.304;8.428;2023-05-07T12:49:47;42.30;46.60
46037;DHT22;31769;49.304;8.428;2023-05-07T12:52:48;39.70;48.60
46037;DHT22;31769;49.304;8.428;2023-05-07T12:55:51;37.20;50.50
46037;DHT22;31769;49.304;8.428;2023-05-07T12:58:57;35.70;52.80
46037;DHT22;31769;49.304;8.428;2023-05-07T13:01:58;35.20;52.80
46037;DHT22;31769;49.304;8.428;2023-05-07T13:04:58;34.40;53.90
46037;DHT22;31769;49.304;8.428;2023-05-07T13:07:59;34.60;53.70
46037;DHT22;31769;49.304;8.428;2023-05-07T13:11:02;34.60;54.10
46037;DHT22;31769;49.304;8.428;2023-05-07T13:14:04;34.70;53.90
46037;DHT22;31769;49.304;8.428;2023-05-07T13:17:04;34.00;54.20
46037;DHT22;31769;49.304;8.428;2023-05-07T13:20:05;33.00;56.20
46037;DHT22;31769;49.304;8.428;2023-05-07T13:23:06;32.00;57.20
46037;DHT22;31769;49.304;8.428;2023-05-07T13:26:07;31.40;57.90
46037;DHT22;31769;49.304;8.428;2023-05-07T13:29:08;31.10;59.30
46037;DHT22;31769;49.304;8.428;2023-05-07T13:32:08;30.90;60.00
46037;DHT22;31769;49.304;8.428;2023-05-07T13:35:09;30.70;60.50
46037;DHT22;31769;49.304;8.428;2023-05-07T13:38:10;30.10;61.40
46037;DHT22;31769;49.304;8.428;2023-05-07T13:41:10;29.90;62.30
46037;DHT22;31769;49.304;8.428;2023-05-07T13:44:13;29.60;62.60
46037;DHT22;31769;49.304;8.428;2023-05-07T13:47:13;29.20;63.90
46037;DHT22;31769;49.304;8.428;2023-05-07T13:50:14;28.80;65.20
46037;DHT22;31769;49.304;8.428;2023-05-07T13:53:15;28.60;64.90
46037;DHT22;31769;49.304;8.428;2023-05-07T13:56:18;28.40;65.30
46037;DHT22;31769;49.304;8.428;2023-05-07T13:59:20;27.70;66.20
46037;DHT22;31769;49.304;8.428;2023-05-07T14:02:21;26.90;68.50
46037;DHT22;31769;49.304;8.428;2023-05-07T14:05:22;26.30;70.30
46037;DHT22;31769;49.304;8.428;2023-05-07T14:08:28;25.90;73.20
46037;DHT22;31769;49.304;8.428;2023-05-07T14:11:29;25.50;75.50
46037;DHT22;31769;49.304;8.428;2023-05-07T14:14:29;25.10;81.30
46037;DHT22;31769;49.304;8.428;2023-05-07T14:17:30;24.20;96.80
46037;DHT22;31769;49.304;8.428;2023-05-07T14:20:31;21.00;99.90
46037;DHT22;31769;49.304;8.428;2023-05-07T14:23:32;18.10;99.90
46037;DHT22;31769;49.304;8.428;2023-05-07T14:26:33;17.20;99.90
46037;DHT22;31769;49.304;8.428;2023-05-07T14:29:34;16.40;99.90
46037;DHT22;31769;49.304;8.428;2023-05-07T14:32:36;15.50;99.90
46037;DHT22;31769;49.304;8.428;2023-05-07T14:35:36;15.50;99.90
46037;DHT22;31769;49.304;8.428;2023-05-07T14:38:37;15.60;99.90
46037;DHT22;31769;49.304;8.428;2023-05-07T14:41:38;15.30;99.90
46037;DHT22;31769;49.304;8.428;2023-05-07T14:44:39;14.90;99.90
46037;DHT22;31769;49.304;8.428;2023-05-07T14:47:41;14.70;99.90
46037;DHT22;31769;49.304;8.428;2023-05-07T14:50:42;14.80;99.90
46037;DHT22;31769;49.304;8.428;2023-05-07T14:53:43;15.00;99.90
46037;DHT22;31769;49.304;8.428;2023-05-07T14:56:44;15.20;99.90
46037;DHT22;31769;49.304;8.428;2023-05-07T14:59:45;15.40;99.90
46037;DHT22;31769;49.304;8.428;2023-05-07T15:02:45;15.50;99.90
46037;DHT22;31769;49.304;8.428;2023-05-07T15:05:46;15.40;99.90
46037;DHT22;31769;49.304;8.428;2023-05-07T15:08:47;15.50;99.90
46037;DHT22;31769;49.304;8.428;2023-05-07T15:11:49;15.60;99.90
46037;DHT22;31769;49.304;8.428;2023-05-07T15:14:49;15.70;99.90
46037;DHT22;31769;49.304;8.428;2023-05-07T15:17:50;15.90;99.90
46037;DHT22;31769;49.304;8.428;2023-05-07T15:20:51;15.90;99.90
46037;DHT22;31769;49.304;8.428;2023-05-07T15:23:51;16.00;99.90
46037;DHT22;31769;49.304;8.428;2023-05-07T15:26:52;16.10;99.90
46037;DHT22;31769;49.304;8.428;2023-05-07T15:29:53;16.10;99.90
46037;DHT22;31769;49.304;8.428;2023-05-07T15:32:53;16.20;99.90
46037;DHT22;31769;49.304;8.428;2023-05-07T15:35:54;16.20;99.90
46037;DHT22;31769;49.304;8.428;2023-05-07T15:38:59;16.10;99.90
46037;DHT22;31769;49.304;8.428;2023-05-07T15:41:59;16.10;99.90
46037;DHT22;31769;49.304;8.428;2023-05-07T15:45:01;16.10;99.90
46037;DHT22;31769;49.304;8.428;2023-05-07T15:48:02;16.10;99.90
46037;DHT22;31769;49.304;8.428;2023-05-07T15:51:03;16.20;99.90
46037;DHT22;31769;49.304;8.428;2023-05-07T15:54:04;16.30;99.90
46037;DHT22;31769;49.304;8.428;2023-05-07T15:57:05;16.40;99.90
46037;DHT22;31769;49.304;8.428;2023-05-07T16:00:07;16.60;99.90
46037;DHT22;31769;49.304;8.428;2023-05-07T16:03:15;16.80;99.90
46037;DHT22;31769;49.304;8.428;2023-05-07T16:06:18;17.00;99.90
46037;DHT22;31769;49.304;8.428;2023-05-07T16:09:18;17.10;99.90
46037;DHT22;31769;49.304;8.428;2023-05-07T16:12:19;17.20;99.90
46037;DHT22;31769;49.304;8.428;2023-05-07T16:15:20;17.30;99.90
46037;DHT22;31769;49.304;8.428;2023-05-07T16:18:21;17.20;99.90
46037;DHT22;31769;49.304;8.428;2023-05-07T16:21:22;17.30;99.90
46037;DHT22;31769;49.304;8.428;2023-05-07T16:24:22;17.20;99.90
46037;DHT22;31769;49.304;8.428;2023-05-07T16:27:23;17.20;99.90
46037;DHT22;31769;49.304;8.428;2023-05-07T16:30:24;17.10;99.90
46037;DHT22;31769;49.304;8.428;2023-05-07T16:33:25;17.10;99.90
46037;DHT22;31769;49.304;8.428;2023-05-07T16:36:26;17.00;99.90
46037;DHT22;31769;49.304;8.428;2023-05-07T16:39:28;17.00;99.90
46037;DHT22;31769;49.304;8.428;2023-05-07T16:42:29;17.10;99.90
46037;DHT22;31769;49.304;8.428;2023-05-07T16:45:29;17.00;99.90
46037;DHT22;31769;49.304;8.428;2023-05-07T16:48:30;16.90;99.90
46037;DHT22;31769;49.304;8.428;2023-05-07T16:51:32;16.80;99.90
46037;DHT22;31769;49.304;8.428;2023-05-07T16:54:34;16.70;99.90
46037;DHT22;31769;49.304;8.428;2023-05-07T16:57:36;16.60;99.90
46037;DHT22;31769;49.304;8.428;2023-05-07T17:00:37;16.40;99.90
46037;DHT22;31769;49.304;8.428;2023-05-07T17:03:38;16.30;99.90
46037;DHT22;31769;49.304;8.428;2023-05-07T17:06:39;16.20;99.90
46037;DHT22;31769;49.304;8.428;2023-05-07T17:09:40;16.30;99.90
46037;DHT22;31769;49.304;8.428;2023-05-07T17:12:40;16.10;99.90
46037;DHT22;31769;49.304;8.428;2023-05-07T17:15:41;16.10;99.90
46037;DHT22;31769;49.304;8.428;2023-05-07T17:18:44;15.90;99.90
46037;DHT22;31769;49.304;8.428;2023-05-07T17:21:45;15.90;99.90
46037;DHT22;31769;49.304;8.428;2023-05-07T17:24:45;15.80;99.90
46037;DHT22;31769;49.304;8.428;2023-05-07T17:27:46;15.80;99.90
46037;DHT22;31769;49.304;8.428;2023-05-07T17:30:47;15.90;99.90
46037;DHT22;31769;49.304;8.428;2023-05-07T17:33:48;15.80;99.90
46037;DHT22;31769;49.304;8.428;2023-05-07T17:36:49;15.80;99.90
46037;DHT22;31769;49.304;8.428;2023-05-07T17:39:49;15.90;99.90
46037;DHT22;31769;49.304;8.428;2023-05-07T17:42:52;15.80;99.90
46037;DHT22;31769;49.304;8.428;2023-05-07T17:45:52;15.90;99.90
46037;DHT22;31769;49.304;8.428;2023-05-07T17:48:53;15.90;99.90
46037;DHT22;31769;49.304;8.428;2023-05-07T17:51:55;15.90;99.90
46037;DHT22;31769;49.304;8.428;2023-05-07T17:54:58;15.90;99.90
46037;DHT22;31769;49.304;8.428;2023-05-07T17:57:59;16.00;99.90
46037;DHT22;31769;49.304;8.428;2023-05-07T18:01:02;15.90;99.90
46037;DHT22;31769;49.304;8.428;2023-05-07T18:04:02;16.00;99.90
46037;DHT22;31769;49.304;8.428;2023-05-07T18:07:03;16.00;99.90
46037;DHT22;31769;49.304;8.428;2023-05-07T18:10:04;16.00;99.90
46037;DHT22;31769;49.304;8.428;2023-05-07T18:13:05;15.90;99.90
46037;DHT22;31769;49.304;8.428;2023-05-07T18:16:06;15.90;99.90
46037;DHT22;31769;49.304;8.428;2023-05-07T18:19:07;16.00;99.90
46037;DHT22;31769;49.304;8.428;2023-05-07T18:22:07;15.90;99.90
46037;DHT22;31769;49.304;8.428;2023-05-07T18:25:08;15.60;99.90
46037;DHT22;31769;49.304;8.428;2023-05-07T18:28:09;15.60;99.90
46037;DHT22;31769;49.304;8.428;2023-05-07T18:31:10;15.50;99.90
46037;DHT22;31769;49.304;8.428;2023-05-07T18:34:11;15.50;99.90
46037;DHT22;31769;49.304;8.428;2023-05-07T18:37:12;15.60;99.90
46037;DHT22;31769;49.304;8.428;2023-05-07T18:40:12;15.40;99.90
46037;DHT22;31769;49.304;8.428;2023-05-07T18:43:13;15.40;99.90
46037;DHT22;31769;49.304;8.428;2023-05-07T18:46:14;15.30;99.90
46037;DHT22;31769;49.304;8.428;2023-05-07T18:49:14;15.30;99.90
46037;DHT22;31769;49.304;8.428;2023-05-07T18:52:16;15.20;99.90
46037;DHT22;31769;49.304;8.428;2023-05-07T18:55:17;15.30;99.90
46037;DHT22;31769;49.304;8.428;2023-05-07T18:58:18;15.30;99.90
46037;DHT22;31769;49.304;8.428;2023-05-07T19:01:19;15.30;99.90
46037;DHT22;31769;49.304;8.428;2023-05-07T19:04:20;15.20;99.90
46037;DHT22;31769;49.304;8.428;2023-05-07T19:07:20;15.20;99.90
46037;DHT22;31769;49.304;8.428;2023-05-07T19:10:21;15.20;99.90
46037;DHT22;31769;49.304;8.428;2023-05-07T19:13:22;15.10;99.90
46037;DHT22;31769;49.304;8.428;2023-05-07T19:16:25;15.20;99.90
46037;DHT22;31769;49.304;8.428;2023-05-07T19:19:25;15.20;99.90
46037;DHT22;31769;49.304;8.428;2023-05-07T19:22:27;15.30;99.90
46037;DHT22;31769;49.304;8.428;2023-05-07T19:25:27;15.30;99.90
46037;DHT22;31769;49.304;8.428;2023-05-07T19:28:28;15.30;99.90
46037;DHT22;31769;49.304;8.428;2023-05-07T19:31:36;15.30;99.90
46037;DHT22;31769;49.304;8.428;2023-05-07T19:34:36;15.30;99.90
46037;DHT22;31769;49.304;8.428;2023-05-07T19:37:37;15.40;99.90
46037;DHT22;31769;49.304;8.428;2023-05-07T19:40:38;15.50;99.90
46037;DHT22;31769;49.304;8.428;2023-05-07T19:43:39;15.50;99.90
46037;DHT22;31769;49.304;8.428;2023-05-07T19:46:40;15.60;99.90
46037;DHT22;31769;49.304;8.428;2023-05-07T19:49:44;15.60;99.90
46037;DHT22;31769;49.304;8.428;2023-05-07T19:52:45;15.50;99.90
46037;DHT22;31769;49.304;8.428;2023-05-07T19:55:46;15.40;99.90
46037;DHT22;31769;49.304;8.428;2023-05-07T19:58:46;15.30;99.90
46037;DHT22;31769;49.304;8.428;2023-05-07T20:01:47;15.20;99.90
46037;DHT22;31769;49.304;8.428;2023-05-07T20:04:48;15.20;99.90
46037;DHT22;31769;49.304;8.428;2023-05-07T20:07:48;15.20;99.90
46037;DHT22;31769;49.304;8.428;2023-05-07T20:10:50;15.20;99.90
46037;DHT22;31769;49.304;8.428;2023-05-07T20:13:51;15.30;99.90
46037;DHT22;31769;49.304;8.428;2023-05-07T20:16:52;15.40;99.90
46037;DHT22;31769;49.304;8.428;2023-05-07T20:19:53;15.50;99.90
46037;DHT22;31769;49.304;8.428;2023-05-07T20:22:54;15.50;99.90
46037;DHT22;31769;49.304;8.428;2023-05-07T20:25:55;15.60;99.90
46037;DHT22;31769;49.304;8.428;2023-05-07T20:28:56;15.60;99.90
46037;DHT22;31769;49.304;8.428;2023-05-07T20:31:57;15.70;99.90
46037;DHT22;31769;49.304;8.428;2023-05-07T20:34:57;15.70;99.90
46037;DHT22;31769;49.304;8.428;2023-05-07T20:37:58;15.70;99.90
46037;DHT22;31769;49.304;8.428;2023-05-07T20:41:06;15.70;99.90
46037;DHT22;31769;49.304;8.428;2023-05-07T20:44:07;15.70;99.90
46037;DHT22;31769;49.304;8.428;2023-05-07T20:47:08;15.70;99.90
46037;DHT22;31769;49.304;8.428;2023-05-07T20:50:09;15.70;99.90
46037;DHT22;31769;49.304;8.428;2023-05-07T20:53:10;15.70;99.90
46037;DHT22;31769;49.304;8.428;2023-05-07T20:56:10;15.70;99.90
46037;DHT22;31769;49.304;8.428;2023-05-07T20:59:11;15.70;99.90
46037;DHT22;31769;49.304;8.428;2023-05-07T21:02:12;15.70;99.90
46037;DHT22;31769;49.304;8.428;2023-05-07T21:05:12;15.70;99.90
46037;DHT22;31769;49.304;8.428;2023-05-07T21:08:13;15.80;99.90
46037;DHT22;31769;49.304;8.428;2023-05-07T21:11:14;15.80;99.90
46037;DHT22;31769;49.304;8.428;2023-05-07T21:14:14;15.80;99.90
46037;DHT22;31769;49.304;8.428;2023-05-07T21:17:15;15.70;99.90